Flight Track Log - Related Links

Times and Time Zones

All times are in EDT time to prevent confusion due to time zone crossing. See the N1136G flight status page for this flight to view local times or setup timezone preferences in your user account.

Time Position Orientation Groundspeed Altitude Reporting Facility
EDT Latitude Longitude Course Direction KTS MPH feet Rate Location/Type
Wed 11:02:25 AM 41.0236 -92.3017 127° Southeast 120 138 3,700  Level Chicago Center
Wed 11:03:28 AM 41.0042 -92.2564 120° Southeast 118 136 4,400 528 Climbing Chicago Center
Wed 11:04:30 AM 40.9908 -92.2217 117° Southeast 115 132 4,800 290 Climbing Chicago Center
Wed 11:05:32 AM 40.9739 -92.1819 119° Southeast 117 135 5,000 145 Climbing Chicago Center
Wed 11:06:34 AM 40.9572 -92.1367 116° Southeast 124 143 5,100  Climbing Chicago Center
Wed 11:08:01 AM 40.9297 -92.0703 119° Southeast 138 159 5,000 -40 Descending Chicago Center
Wed 11:09:03 AM 40.9056 -92.0125 119° Southeast 145 167 5,000  Level Chicago Center
Wed 11:10:05 AM 40.8853 -91.9658 120° Southeast 147 169 5,000 -48 Level Chicago Center
Wed 11:11:07 AM 40.8650 -91.9203 120° Southeast 147 169 4,900  Descending Chicago Center
Wed 11:12:09 AM 40.8461 -91.8731 118° Southeast 146 168 5,000 48 Climbing Chicago Center
Wed 11:13:11 AM 40.8278 -91.8264 117° Southeast 145 167 5,000  Level Chicago Center
Wed 11:14:13 AM 40.8061 -91.7689 116° Southeast 146 168 5,000  Level Chicago Center
Wed 11:15:15 AM 40.7872 -91.7217 118° Southeast 147 169 5,000  Level Chicago Center
Wed 11:16:17 AM 40.7703 -91.6731 115° Southeast 147 169 5,000  Level Chicago Center
Wed 11:17:19 AM 40.7542 -91.6236 113° Southeast 147 169 5,000  Level Chicago Center
Wed 11:18:21 AM 40.7378 -91.5744 114° Southeast 147 169 5,000  Level Chicago Center
Wed 11:19:23 AM 40.7189 -91.5158 113° Southeast 147 169 5,000  Level Chicago Center
Wed 11:20:25 AM 40.7011 -91.4667 115° Southeast 148 170 5,000 -48 Level Chicago Center
Wed 11:21:27 AM 40.6844 -91.4189 115° Southeast 146 168 4,900  Descending Chicago Center
Wed 11:22:29 AM 40.6664 -91.3706 116° Southeast 148 170 5,000 48 Climbing Chicago Center
Wed 11:23:31 AM 40.6478 -91.3233 117° Southeast 146 168 5,000 -48 Level Chicago Center
Wed 11:24:33 AM 40.6267 -91.2708 118° Southeast 147 169 4,900  Descending Chicago Center
Wed 11:25:35 AM 40.6069 -91.2239 119° Southeast 147 169 5,000 97 Climbing Chicago Center
Wed 11:26:37 AM 40.5883 -91.1772 118° Southeast 145 167 5,100 48 Climbing Chicago Center
Wed 11:27:39 AM 40.5700 -91.1311 118° Southeast 144 166 5,100  Level Chicago Center
Wed 11:28:41 AM 40.5472 -91.0733 117° Southeast 147 169 5,100 -48 Level Chicago Center
Wed 11:29:43 AM 40.5297 -91.0261 116° Southeast 145 167 5,000 -97 Descending Chicago Center
Wed 11:30:45 AM 40.5094 -90.9769 118° Southeast 150 173 4,900  Descending Chicago Center
Wed 11:31:47 AM 40.4897 -90.9289 118° Southeast 150 173 5,000 48 Climbing Chicago Center
Wed 11:32:49 AM 40.4667 -90.8811 122° Southeast 152 175 5,000 48 Level Chicago Center
Wed 11:33:51 AM 40.4472 -90.8336 118° Southeast 151 174 5,100 48 Climbing Chicago Center
Wed 11:34:53 AM 40.4253 -90.7792 118° Southeast 144 166 5,100  Level Chicago Center
Wed 11:35:55 AM 40.4044 -90.7308 119° Southeast 149 171 5,100 -48 Level Chicago Center
Wed 11:36:57 AM 40.3875 -90.6808 114° Southeast 150 173 5,000 -97 Descending Chicago Center
Wed 11:37:59 AM 40.3678 -90.6300 117° Southeast 154 177 4,900  Descending Chicago Center
Wed 11:39:01 AM 40.3506 -90.5822 115° Southeast 149 171 5,000  Climbing Chicago Center
Wed 11:40:07 AM 40.3303 -90.5233 114° Southeast 148 170 4,900  Descending Kansas City Center
Wed 11:41:10 AM 40.3111 -90.4739 117° Southeast 149 171 5,000 48 Climbing Kansas City Center
Wed 11:42:12 AM 40.2933 -90.4258 116° Southeast 149 171 5,000 48 Level Kansas City Center
Wed 11:43:14 AM 40.2742 -90.3761 117° Southeast 150 173 5,100 50 Climbing Kansas City Center
Wed 11:44:11 AM 40.2550 -90.3289 118° Southeast 149 171 5,100 -50 Level Chicago Center
Wed 11:45:13 AM 40.2372 -90.2792 115° Southeast 150 173 5,000  Descending Chicago Center
Wed 11:46:15 AM 40.2181 -90.2314 118° Southeast 150 173 5,100  Climbing Chicago Center
Wed 11:47:17 AM 40.1942 -90.1731 118° Southeast 151 174 5,000 -48 Descending Chicago Center
Wed 11:48:19 AM 40.1742 -90.1228 117° Southeast 153 176 5,000  Level Chicago Center
Wed 11:49:21 AM 40.1539 -90.0739 118° Southeast 154 177 5,000  Level Chicago Center
Wed 11:50:23 AM 40.1339 -90.0242 118° Southeast 154 177 5,000  Level Chicago Center
Wed 11:51:30 AM 40.1106 -89.9650 117° Southeast 154 177 5,000 -47 Level Kansas City Center
Wed 11:52:32 AM 40.0906 -89.9164 118° Southeast 153 176 4,900  Descending Kansas City Center
Wed 11:53:34 AM 40.0711 -89.8675 117° Southeast 152 175 5,000 48 Climbing Kansas City Center
Wed 11:54:36 AM 40.0528 -89.8175 116° Southeast 153 176 5,000  Level Kansas City Center
Wed 11:55:38 AM 40.0367 -89.7656 112° Southeast 153 176 5,000  Level Kansas City Center
Wed 11:56:40 AM 40.0156 -89.7036 114° Southeast 156 180 5,000 48 Level Kansas City Center
Wed 11:57:42 AM 39.9997 -89.6542 113° Southeast 151 174 5,100  Climbing Kansas City Center
Wed 11:58:44 AM 39.9814 -89.6033 115° Southeast 154 177 5,000 -48 Descending Kansas City Center
Wed 11:59:46 AM 39.9617 -89.5539 117° Southeast 153 176 5,000 -48 Level Kansas City Center
Wed 12:00:48 PM 39.9422 -89.5033 117° Southeast 156 180 4,900  Descending Kansas City Center
Wed 12:01:50 PM 39.9222 -89.4539 118° Southeast 155 178 5,000 40 Climbing Kansas City Center
Wed 12:03:17 PM 39.8911 -89.3747 117° Southeast 153 176 5,000  Level Kansas City Center
Wed 12:04:19 PM 39.8717 -89.3244 117° Southeast 155 178 5,000  Level Kansas City Center
Wed 12:05:21 PM 39.8525 -89.2742 116° Southeast 155 178 5,000  Level Kansas City Center
Wed 12:06:23 PM 39.8314 -89.2253 119° Southeast 156 180 5,000 -48 Level Kansas City Center
Wed 12:07:26 PM 39.8097 -89.1772 120° Southeast 155 178 4,900  Descending Kansas City Center
Wed 12:08:28 PM 39.7875 -89.1283 121° Southeast 156 180 5,000 48 Climbing Kansas City Center
Wed 12:09:30 PM 39.7611 -89.0708 121° Southeast 154 177 5,000  Level Kansas City Center
Wed 12:10:32 PM 39.7392 -89.0231 121° Southeast 155 178 5,000  Level Kansas City Center
Wed 12:11:34 PM 39.7169 -88.9744 121° Southeast 155 178 5,000  Level Kansas City Center
Wed 12:12:36 PM 39.6956 -88.9256 120° Southeast 157 181 5,000  Level Kansas City Center
Wed 12:13:38 PM 39.6750 -88.8764 118° Southeast 155 178 5,000 -48 Level Kansas City Center
Wed 12:14:40 PM 39.6531 -88.8278 120° Southeast 155 178 4,900  Descending Kansas City Center
Wed 12:15:42 PM 39.6300 -88.7681 117° Southeast 154 177 5,000 48 Climbing Kansas City Center
Wed 12:16:44 PM 39.6092 -88.7189 119° Southeast 155 178 5,000  Level Kansas City Center
Wed 12:17:46 PM 39.5897 -88.6703 117° Southeast 154 177 5,000  Level Kansas City Center
Wed 12:18:48 PM 39.5694 -88.6208 118° Southeast 155 178 5,000  Level Kansas City Center
Wed 12:19:50 PM 39.5486 -88.5708 118° Southeast 155 178 5,000  Level Kansas City Center
Wed 12:20:52 PM 39.5289 -88.5214 117° Southeast 156 180 5,000 48 Level Kansas City Center
Wed 12:21:54 PM 39.5025 -88.4614 120° Southeast 159 183 5,100 48 Climbing Kansas City Center
Wed 12:22:56 PM 39.4806 -88.4144 121° Southeast 156 180 5,100  Level Kansas City Center
Wed 12:23:58 PM 39.4606 -88.3642 117° Southeast 155 178 5,100 -66 Level Kansas City Center
Wed 12:25:58 PM 39.4200 -88.2697 119° Southeast 158 182 4,900 -100 Descending Chicago Center

Login

Don't have an account? Register now (free) for customized features, flight alerts, and more!